sensor_id;sensor_type;location;lat;lon;timestamp;temperature;humidity
20546;DHT22;10431;50.228;9.112;2023-04-28T00:02:19;18.70;78.50
20546;DHT22;10431;50.228;9.112;2023-04-28T00:04:45;18.70;78.50
20546;DHT22;10431;50.228;9.112;2023-04-28T00:07:12;18.70;78.70
20546;DHT22;10431;50.228;9.112;2023-04-28T00:09:38;18.70;78.70
20546;DHT22;10431;50.228;9.112;2023-04-28T00:12:04;18.70;78.70
20546;DHT22;10431;50.228;9.112;2023-04-28T00:14:31;18.70;78.80
20546;DHT22;10431;50.228;9.112;2023-04-28T00:16:57;18.70;78.60
20546;DHT22;10431;50.228;9.112;2023-04-28T00:19:24;18.70;78.50
20546;DHT22;10431;50.228;9.112;2023-04-28T00:21:50;18.70;78.50
20546;DHT22;10431;50.228;9.112;2023-04-28T00:24:16;18.70;78.80
20546;DHT22;10431;50.228;9.112;2023-04-28T00:26:43;18.70;78.60
20546;DHT22;10431;50.228;9.112;2023-04-28T00:29:09;18.70;78.70
20546;DHT22;10431;50.228;9.112;2023-04-28T00:31:35;18.70;78.70
20546;DHT22;10431;50.228;9.112;2023-04-28T00:34:02;18.70;78.70
20546;DHT22;10431;50.228;9.112;2023-04-28T00:36:28;18.70;78.70
20546;DHT22;10431;50.228;9.112;2023-04-28T00:38:58;18.70;79.50
20546;DHT22;10431;50.228;9.112;2023-04-28T00:41:24;18.70;78.70
20546;DHT22;10431;50.228;9.112;2023-04-28T00:43:50;18.70;78.70
20546;DHT22;10431;50.228;9.112;2023-04-28T00:46:23;18.70;78.90
20546;DHT22;10431;50.228;9.112;2023-04-28T00:48:50;18.60;78.80
20546;DHT22;10431;50.228;9.112;2023-04-28T00:51:16;18.70;78.80
20546;DHT22;10431;50.228;9.112;2023-04-28T00:53:44;18.60;78.80
20546;DHT22;10431;50.228;9.112;2023-04-28T00:56:10;18.70;79.60
20546;DHT22;10431;50.228;9.112;2023-04-28T00:58:37;18.60;78.80
20546;DHT22;10431;50.228;9.112;2023-04-28T01:01:04;18.70;78.90
20546;DHT22;10431;50.228;9.112;2023-04-28T01:03:38;18.60;78.80
20546;DHT22;10431;50.228;9.112;2023-04-28T01:06:06;18.70;78.90
20546;DHT22;10431;50.228;9.112;2023-04-28T01:08:35;18.60;78.90
20546;DHT22;10431;50.228;9.112;2023-04-28T01:11:03;18.60;78.90
20546;DHT22;10431;50.228;9.112;2023-04-28T01:13:51;18.60;78.90
20546;DHT22;10431;50.228;9.112;2023-04-28T01:16:18;18.60;78.80
20546;DHT22;10431;50.228;9.112;2023-04-28T01:18:46;18.60;78.90
20546;DHT22;10431;50.228;9.112;2023-04-28T01:21:13;18.60;78.90
20546;DHT22;10431;50.228;9.112;2023-04-28T01:23:39;18.60;78.90
20546;DHT22;10431;50.228;9.112;2023-04-28T01:26:06;18.60;78.90
20546;DHT22;10431;50.228;9.112;2023-04-28T01:28:32;18.60;79.00
20546;DHT22;10431;50.228;9.112;2023-04-28T01:30:59;18.60;78.90
20546;DHT22;10431;50.228;9.112;2023-04-28T01:33:25;18.60;79.00
20546;DHT22;10431;50.228;9.112;2023-04-28T01:35:56;18.60;79.00
20546;DHT22;10431;50.228;9.112;2023-04-28T01:38:23;18.60;79.00
20546;DHT22;10431;50.228;9.112;2023-04-28T01:40:49;18.60;78.90
20546;DHT22;10431;50.228;9.112;2023-04-28T01:43:17;18.60;79.00
20546;DHT22;10431;50.228;9.112;2023-04-28T01:45:43;18.60;79.10
20546;DHT22;10431;50.228;9.112;2023-04-28T01:48:09;18.60;79.10
20546;DHT22;10431;50.228;9.112;2023-04-28T01:50:36;18.60;79.00
20546;DHT22;10431;50.228;9.112;2023-04-28T01:53:03;18.60;79.00
20546;DHT22;10431;50.228;9.112;2023-04-28T01:55:30;18.60;79.10
20546;DHT22;10431;50.228;9.112;2023-04-28T01:57:56;18.60;79.10
20546;DHT22;10431;50.228;9.112;2023-04-28T02:00:23;18.60;79.40
20546;DHT22;10431;50.228;9.112;2023-04-28T02:02:50;18.60;79.10
20546;DHT22;10431;50.228;9.112;2023-04-28T02:05:17;18.60;79.10
20546;DHT22;10431;50.228;9.112;2023-04-28T02:07:43;18.60;79.10
20546;DHT22;10431;50.228;9.112;2023-04-28T02:10:09;18.60;79.10
20546;DHT22;10431;50.228;9.112;2023-04-28T02:12:35;18.60;79.20
20546;DHT22;10431;50.228;9.112;2023-04-28T02:15:02;18.60;79.20
20546;DHT22;10431;50.228;9.112;2023-04-28T02:17:31;18.60;79.30
20546;DHT22;10431;50.228;9.112;2023-04-28T02:19:57;18.60;79.20
20546;DHT22;10431;50.228;9.112;2023-04-28T02:22:24;18.60;79.20
20546;DHT22;10431;50.228;9.112;2023-04-28T02:24:50;18.60;79.20
20546;DHT22;10431;50.228;9.112;2023-04-28T02:27:17;18.60;79.30
20546;DHT22;10431;50.228;9.112;2023-04-28T02:29:43;18.60;79.30
20546;DHT22;10431;50.228;9.112;2023-04-28T02:32:09;18.60;79.40
20546;DHT22;10431;50.228;9.112;2023-04-28T02:34:35;18.60;79.30
20546;DHT22;10431;50.228;9.112;2023-04-28T02:37:01;18.60;79.30
20546;DHT22;10431;50.228;9.112;2023-04-28T02:39:28;18.60;79.40
20546;DHT22;10431;50.228;9.112;2023-04-28T02:41:56;18.60;79.40
20546;DHT22;10431;50.228;9.112;2023-04-28T02:44:23;18.60;79.40
20546;DHT22;10431;50.228;9.112;2023-04-28T02:46:49;18.60;79.40
20546;DHT22;10431;50.228;9.112;2023-04-28T02:49:16;18.60;79.40
20546;DHT22;10431;50.228;9.112;2023-04-28T02:51:42;18.60;79.40
20546;DHT22;10431;50.228;9.112;2023-04-28T02:54:08;18.60;79.40
20546;DHT22;10431;50.228;9.112;2023-04-28T02:56:35;18.60;79.40
20546;DHT22;10431;50.228;9.112;2023-04-28T02:59:03;18.60;79.40
20546;DHT22;10431;50.228;9.112;2023-04-28T03:01:29;18.60;79.50
20546;DHT22;10431;50.228;9.112;2023-04-28T03:03:55;18.50;79.40
20546;DHT22;10431;50.228;9.112;2023-04-28T03:06:21;18.50;79.40
20546;DHT22;10431;50.228;9.112;2023-04-28T03:08:48;18.60;79.50
20546;DHT22;10431;50.228;9.112;2023-04-28T03:11:14;18.50;79.40
20546;DHT22;10431;50.228;9.112;2023-04-28T03:13:41;18.50;79.50
20546;DHT22;10431;50.228;9.112;2023-04-28T03:16:07;18.60;79.60
20546;DHT22;10431;50.228;9.112;2023-04-28T03:18:34;18.50;79.40
20546;DHT22;10431;50.228;9.112;2023-04-28T03:21:00;18.50;79.50
20546;DHT22;10431;50.228;9.112;2023-04-28T03:23:27;18.50;79.40
20546;DHT22;10431;50.228;9.112;2023-04-28T03:25:53;18.50;79.50
20546;DHT22;10431;50.228;9.112;2023-04-28T03:28:20;18.50;79.50
20546;DHT22;10431;50.228;9.112;2023-04-28T03:30:47;18.50;79.50
20546;DHT22;10431;50.228;9.112;2023-04-28T03:33:13;18.50;79.60
20546;DHT22;10431;50.228;9.112;2023-04-28T03:35:40;18.50;79.60
20546;DHT22;10431;50.228;9.112;2023-04-28T03:38:06;18.50;80.30
20546;DHT22;10431;50.228;9.112;2023-04-28T03:40:33;18.50;80.30
20546;DHT22;10431;50.228;9.112;2023-04-28T03:43:28;18.50;79.60
20546;DHT22;10431;50.228;9.112;2023-04-28T03:46:29;18.50;79.50
20546;DHT22;10431;50.228;9.112;2023-04-28T03:48:59;18.50;79.50
20546;DHT22;10431;50.228;9.112;2023-04-28T03:51:27;18.60;79.50
20546;DHT22;10431;50.228;9.112;2023-04-28T03:53:54;18.50;79.50
20546;DHT22;10431;50.228;9.112;2023-04-28T03:56:21;18.50;79.50
20546;DHT22;10431;50.228;9.112;2023-04-28T03:58:47;18.50;79.50
20546;DHT22;10431;50.228;9.112;2023-04-28T04:01:13;18.50;79.40
20546;DHT22;10431;50.228;9.112;2023-04-28T04:03:40;18.60;79.60
20546;DHT22;10431;50.228;9.112;2023-04-28T04:06:06;18.50;79.40
20546;DHT22;10431;50.228;9.112;2023-04-28T04:08:33;18.50;79.50
20546;DHT22;10431;50.228;9.112;2023-04-28T04:10:59;18.50;79.50
20546;DHT22;10431;50.228;9.112;2023-04-28T04:13:26;18.50;79.50
20546;DHT22;10431;50.228;9.112;2023-04-28T04:15:52;18.50;79.50
20546;DHT22;10431;50.228;9.112;2023-04-28T04:18:20;18.50;80.10
20546;DHT22;10431;50.228;9.112;2023-04-28T04:21:14;18.50;79.40
20546;DHT22;10431;50.228;9.112;2023-04-28T04:23:40;18.50;80.20
20546;DHT22;10431;50.228;9.112;2023-04-28T04:26:06;18.50;79.50
20546;DHT22;10431;50.228;9.112;2023-04-28T04:28:33;18.60;79.50
20546;DHT22;10431;50.228;9.112;2023-04-28T04:30:59;18.50;79.40
20546;DHT22;10431;50.228;9.112;2023-04-28T04:33:25;18.50;79.50
20546;DHT22;10431;50.228;9.112;2023-04-28T04:35:52;18.50;79.50
20546;DHT22;10431;50.228;9.112;2023-04-28T04:38:18;18.50;79.50
20546;DHT22;10431;50.228;9.112;2023-04-28T04:40:44;18.60;79.60
20546;DHT22;10431;50.228;9.112;2023-04-28T04:43:10;18.70;79.60
20546;DHT22;10431;50.228;9.112;2023-04-28T04:45:43;18.80;79.30
20546;DHT22;10431;50.228;9.112;2023-04-28T04:48:11;19.00;79.10
20546;DHT22;10431;50.228;9.112;2023-04-28T04:50:37;19.10;78.80
20546;DHT22;10431;50.228;9.112;2023-04-28T04:53:04;19.20;78.60
20546;DHT22;10431;50.228;9.112;2023-04-28T04:55:31;19.30;78.40
20546;DHT22;10431;50.228;9.112;2023-04-28T04:57:58;19.30;78.30
20546;DHT22;10431;50.228;9.112;2023-04-28T05:00:38;19.30;78.20
20546;DHT22;10431;50.228;9.112;2023-04-28T05:03:04;19.40;78.20
20546;DHT22;10431;50.228;9.112;2023-04-28T05:05:31;19.40;78.10
20546;DHT22;10431;50.228;9.112;2023-04-28T05:08:10;19.40;78.10
20546;DHT22;10431;50.228;9.112;2023-04-28T05:10:37;19.40;78.20
20546;DHT22;10431;50.228;9.112;2023-04-28T05:13:03;19.40;78.20
20546;DHT22;10431;50.228;9.112;2023-04-28T05:15:30;19.10;77.10
20546;DHT22;10431;50.228;9.112;2023-04-28T05:18:13;18.30;77.70
20546;DHT22;10431;50.228;9.112;2023-04-28T05:20:39;17.80;79.00
20546;DHT22;10431;50.228;9.112;2023-04-28T05:23:06;17.40;79.70
20546;DHT22;10431;50.228;9.112;2023-04-28T05:25:32;17.10;80.60
20546;DHT22;10431;50.228;9.112;2023-04-28T05:27:59;17.10;81.70
20546;DHT22;10431;50.228;9.112;2023-04-28T05:30:29;17.00;82.20
20546;DHT22;10431;50.228;9.112;2023-04-28T05:32:56;17.00;83.00
20546;DHT22;10431;50.228;9.112;2023-04-28T05:35:22;17.50;82.00
20546;DHT22;10431;50.228;9.112;2023-04-28T05:37:48;17.80;81.00
20546;DHT22;10431;50.228;9.112;2023-04-28T05:40:15;18.00;80.70
20546;DHT22;10431;50.228;9.112;2023-04-28T05:42:41;18.50;80.50
20546;DHT22;10431;50.228;9.112;2023-04-28T05:45:08;18.80;79.80
20546;DHT22;10431;50.228;9.112;2023-04-28T05:47:34;19.10;79.20
20546;DHT22;10431;50.228;9.112;2023-04-28T05:50:01;19.20;78.80
20546;DHT22;10431;50.228;9.112;2023-04-28T05:52:28;19.40;78.70
20546;DHT22;10431;50.228;9.112;2023-04-28T05:54:55;19.30;78.20
20546;DHT22;10431;50.228;9.112;2023-04-28T05:57:21;18.90;78.80
20546;DHT22;10431;50.228;9.112;2023-04-28T05:59:48;19.00;80.10
20546;DHT22;10431;50.228;9.112;2023-04-28T06:02:14;19.10;80.20
20546;DHT22;10431;50.228;9.112;2023-04-28T06:04:40;19.10;80.10
20546;DHT22;10431;50.228;9.112;2023-04-28T06:07:07;19.30;80.20
20546;DHT22;10431;50.228;9.112;2023-04-28T06:09:34;19.50;80.00
20546;DHT22;10431;50.228;9.112;2023-04-28T06:12:00;19.50;79.80
20546;DHT22;10431;50.228;9.112;2023-04-28T06:14:26;19.50;80.10
20546;DHT22;10431;50.228;9.112;2023-04-28T06:16:52;19.60;80.30
20546;DHT22;10431;50.228;9.112;2023-04-28T06:19:19;19.50;80.00
20546;DHT22;10431;50.228;9.112;2023-04-28T06:21:45;19.50;80.60
20546;DHT22;10431;50.228;9.112;2023-04-28T06:24:12;19.50;80.80
20546;DHT22;10431;50.228;9.112;2023-04-28T06:26:39;19.50;80.90
20546;DHT22;10431;50.228;9.112;2023-04-28T06:29:08;19.50;80.80
20546;DHT22;10431;50.228;9.112;2023-04-28T06:31:34;19.20;81.40
20546;DHT22;10431;50.228;9.112;2023-04-28T06:34:01;19.20;81.60
20546;DHT22;10431;50.228;9.112;2023-04-28T06:36:27;19.40;81.70
20546;DHT22;10431;50.228;9.112;2023-04-28T06:38:53;19.50;81.40
20546;DHT22;10431;50.228;9.112;2023-04-28T06:41:19;19.50;81.30
20546;DHT22;10431;50.228;9.112;2023-04-28T06:43:49;19.50;81.30
20546;DHT22;10431;50.228;9.112;2023-04-28T06:46:28;19.50;81.20
20546;DHT22;10431;50.228;9.112;2023-04-28T06:48:55;19.50;81.30
20546;DHT22;10431;50.228;9.112;2023-04-28T06:51:21;19.50;81.30
20546;DHT22;10431;50.228;9.112;2023-04-28T06:53:47;19.50;81.40
20546;DHT22;10431;50.228;9.112;2023-04-28T06:56:16;19.50;81.60
20546;DHT22;10431;50.228;9.112;2023-04-28T06:58:42;19.50;81.70
20546;DHT22;10431;50.228;9.112;2023-04-28T07:01:08;19.40;81.70
20546;DHT22;10431;50.228;9.112;2023-04-28T07:03:34;19.40;81.90
20546;DHT22;10431;50.228;9.112;2023-04-28T07:06:01;19.40;81.90
20546;DHT22;10431;50.228;9.112;2023-04-28T07:08:28;19.40;81.90
20546;DHT22;10431;50.228;9.112;2023-04-28T07:10:55;19.40;82.00
20546;DHT22;10431;50.228;9.112;2023-04-28T07:13:21;19.40;82.00
20546;DHT22;10431;50.228;9.112;2023-04-28T07:15:48;19.40;82.10
20546;DHT22;10431;50.228;9.112;2023-04-28T07:18:14;19.30;82.00
20546;DHT22;10431;50.228;9.112;2023-04-28T07:20:41;19.30;82.10
20546;DHT22;10431;50.228;9.112;2023-04-28T07:23:07;19.30;82.20
20546;DHT22;10431;50.228;9.112;2023-04-28T07:25:33;19.30;82.20
20546;DHT22;10431;50.228;9.112;2023-04-28T07:28:02;19.30;82.20
20546;DHT22;10431;50.228;9.112;2023-04-28T07:30:28;19.30;82.20
20546;DHT22;10431;50.228;9.112;2023-04-28T07:32:55;19.30;82.30
20546;DHT22;10431;50.228;9.112;2023-04-28T07:35:21;19.30;82.30
20546;DHT22;10431;50.228;9.112;2023-04-28T07:37:47;19.20;82.40
20546;DHT22;10431;50.228;9.112;2023-04-28T07:40:13;19.20;82.40
20546;DHT22;10431;50.228;9.112;2023-04-28T07:42:40;19.20;82.50
20546;DHT22;10431;50.228;9.112;2023-04-28T07:45:07;19.20;83.30
20546;DHT22;10431;50.228;9.112;2023-04-28T07:47:34;19.20;82.50
20546;DHT22;10431;50.228;9.112;2023-04-28T07:50:01;19.20;82.70
20546;DHT22;10431;50.228;9.112;2023-04-28T07:52:31;19.00;82.50
20546;DHT22;10431;50.228;9.112;2023-04-28T07:54:58;18.90;83.20
20546;DHT22;10431;50.228;9.112;2023-04-28T07:57:25;19.00;83.90
20546;DHT22;10431;50.228;9.112;2023-04-28T07:59:51;19.00;84.00
20546;DHT22;10431;50.228;9.112;2023-04-28T08:02:18;18.90;83.20
20546;DHT22;10431;50.228;9.112;2023-04-28T08:04:45;18.90;83.80
20546;DHT22;10431;50.228;9.112;2023-04-28T08:07:12;18.80;83.90
20546;DHT22;10431;50.228;9.112;2023-04-28T08:09:38;18.80;84.40
20546;DHT22;10431;50.228;9.112;2023-04-28T08:12:06;18.90;85.00
20546;DHT22;10431;50.228;9.112;2023-04-28T08:14:33;18.80;83.70
20546;DHT22;10431;50.228;9.112;2023-04-28T08:16:59;18.70;84.10
20546;DHT22;10431;50.228;9.112;2023-04-28T08:19:25;18.70;84.00
20546;DHT22;10431;50.228;9.112;2023-04-28T08:21:52;18.60;84.10
20546;DHT22;10431;50.228;9.112;2023-04-28T08:24:18;18.60;84.20
20546;DHT22;10431;50.228;9.112;2023-04-28T08:26:44;18.60;84.30
20546;DHT22;10431;50.228;9.112;2023-04-28T08:29:11;18.60;84.70
20546;DHT22;10431;50.228;9.112;2023-04-28T08:31:37;18.60;84.70
20546;DHT22;10431;50.228;9.112;2023-04-28T08:34:03;18.50;84.80
20546;DHT22;10431;50.228;9.112;2023-04-28T08:36:30;18.50;85.00
20546;DHT22;10431;50.228;9.112;2023-04-28T08:38:59;18.50;84.80
20546;DHT22;10431;50.228;9.112;2023-04-28T08:41:26;18.50;85.20
20546;DHT22;10431;50.228;9.112;2023-04-28T08:43:54;18.50;85.10
20546;DHT22;10431;50.228;9.112;2023-04-28T08:46:21;18.50;85.60
20546;DHT22;10431;50.228;9.112;2023-04-28T08:48:49;18.50;85.70
20546;DHT22;10431;50.228;9.112;2023-04-28T08:51:32;18.50;85.60
20546;DHT22;10431;50.228;9.112;2023-04-28T08:54:01;18.70;86.50
20546;DHT22;10431;50.228;9.112;2023-04-28T08:56:32;19.00;85.90
20546;DHT22;10431;50.228;9.112;2023-04-28T08:59:02;19.20;85.20
20546;DHT22;10431;50.228;9.112;2023-04-28T09:01:31;19.40;84.80
20546;DHT22;10431;50.228;9.112;2023-04-28T09:04:01;19.40;84.40
20546;DHT22;10431;50.228;9.112;2023-04-28T09:06:35;19.50;84.10
20546;DHT22;10431;50.228;9.112;2023-04-28T09:11:57;19.60;83.70
20546;DHT22;10431;50.228;9.112;2023-04-28T09:14:27;19.60;84.30
20546;DHT22;10431;50.228;9.112;2023-04-28T09:16:54;19.60;83.40
20546;DHT22;10431;50.228;9.112;2023-04-28T09:19:21;19.50;83.10
20546;DHT22;10431;50.228;9.112;2023-04-28T09:21:56;19.40;84.50
20546;DHT22;10431;50.228;9.112;2023-04-28T09:24:32;19.50;84.90
20546;DHT22;10431;50.228;9.112;2023-04-28T09:27:00;19.50;84.80
20546;DHT22;10431;50.228;9.112;2023-04-28T09:29:27;19.50;84.90
20546;DHT22;10431;50.228;9.112;2023-04-28T09:31:54;19.50;84.90
20546;DHT22;10431;50.228;9.112;2023-04-28T09:34:47;19.50;84.90
20546;DHT22;10431;50.228;9.112;2023-04-28T09:37:15;19.40;85.60
20546;DHT22;10431;50.228;9.112;2023-04-28T09:39:43;19.40;85.00
20546;DHT22;10431;50.228;9.112;2023-04-28T09:42:10;19.40;85.00
20546;DHT22;10431;50.228;9.112;2023-04-28T09:44:36;19.40;85.10
20546;DHT22;10431;50.228;9.112;2023-04-28T09:47:19;19.40;85.00
20546;DHT22;10431;50.228;9.112;2023-04-28T09:49:57;19.40;85.00
20546;DHT22;10431;50.228;9.112;2023-04-28T09:52:25;19.40;84.90
20546;DHT22;10431;50.228;9.112;2023-04-28T09:54:53;19.40;84.90
20546;DHT22;10431;50.228;9.112;2023-04-28T09:57:20;19.40;84.90
20546;DHT22;10431;50.228;9.112;2023-04-28T09:59:50;19.50;84.90
20546;DHT22;10431;50.228;9.112;2023-04-28T10:02:18;19.50;84.80
20546;DHT22;10431;50.228;9.112;2023-04-28T10:04:47;19.50;84.80
20546;DHT22;10431;50.228;9.112;2023-04-28T10:07:14;19.40;84.70
20546;DHT22;10431;50.228;9.112;2023-04-28T10:09:47;19.40;84.70
20546;DHT22;10431;50.228;9.112;2023-04-28T10:12:23;19.50;84.80
20546;DHT22;10431;50.228;9.112;2023-04-28T10:14:50;19.50;84.80
20546;DHT22;10431;50.228;9.112;2023-04-28T10:17:22;19.50;84.80
20546;DHT22;10431;50.228;9.112;2023-04-28T10:19:52;19.50;84.70
20546;DHT22;10431;50.228;9.112;2023-04-28T10:22:46;19.40;84.80
20546;DHT22;10431;50.228;9.112;2023-04-28T10:25:34;19.40;84.80
20546;DHT22;10431;50.228;9.112;2023-04-28T10:28:04;19.40;84.90
20546;DHT22;10431;50.228;9.112;2023-04-28T10:30:31;19.30;84.90
20546;DHT22;10431;50.228;9.112;2023-04-28T10:35:41;19.30;85.00
20546;DHT22;10431;50.228;9.112;2023-04-28T10:40:46;19.20;85.00
20546;DHT22;10431;50.228;9.112;2023-04-28T10:48:18;19.20;85.20
20546;DHT22;10431;50.228;9.112;2023-04-28T10:51:20;19.20;85.30
20546;DHT22;10431;50.228;9.112;2023-04-28T10:56:25;19.10;85.20
20546;DHT22;10431;50.228;9.112;2023-04-28T10:58:56;19.00;86.30
20546;DHT22;10431;50.228;9.112;2023-04-28T11:01:27;18.90;86.40
20546;DHT22;10431;50.228;9.112;2023-04-28T11:04:06;19.00;86.90
20546;DHT22;10431;50.228;9.112;2023-04-28T11:06:37;19.00;87.00
20546;DHT22;10431;50.228;9.112;2023-04-28T11:11:38;19.10;86.80
20546;DHT22;10431;50.228;9.112;2023-04-28T11:19:27;19.20;86.60
20546;DHT22;10431;50.228;9.112;2023-04-28T11:21:55;19.20;86.50
20546;DHT22;10431;50.228;9.112;2023-04-28T11:24:27;19.20;86.50
20546;DHT22;10431;50.228;9.112;2023-04-28T11:26:57;19.20;86.60
20546;DHT22;10431;50.228;9.112;2023-04-28T11:29:37;19.20;86.60
20546;DHT22;10431;50.228;9.112;2023-04-28T11:32:06;19.30;86.70
20546;DHT22;10431;50.228;9.112;2023-04-28T11:34:33;19.30;86.70
20546;DHT22;10431;50.228;9.112;2023-04-28T11:36:59;19.20;86.80
20546;DHT22;10431;50.228;9.112;2023-04-28T11:39:30;19.20;86.90
20546;DHT22;10431;50.228;9.112;2023-04-28T11:41:58;19.20;86.90
20546;DHT22;10431;50.228;9.112;2023-04-28T11:44:27;19.20;86.70
20546;DHT22;10431;50.228;9.112;2023-04-28T11:46:55;19.20;86.70
20546;DHT22;10431;50.228;9.112;2023-04-28T11:49:22;19.20;86.70
20546;DHT22;10431;50.228;9.112;2023-04-28T11:52:06;19.20;86.60
20546;DHT22;10431;50.228;9.112;2023-04-28T11:54:34;19.30;86.60
20546;DHT22;10431;50.228;9.112;2023-04-28T11:57:00;19.30;86.60
20546;DHT22;10431;50.228;9.112;2023-04-28T11:59:30;19.30;86.60
20546;DHT22;10431;50.228;9.112;2023-04-28T12:04:36;19.30;87.00
20546;DHT22;10431;50.228;9.112;2023-04-28T12:07:13;19.30;87.10
20546;DHT22;10431;50.228;9.112;2023-04-28T12:09:44;19.30;87.20
20546;DHT22;10431;50.228;9.112;2023-04-28T12:12:13;19.30;87.30
20546;DHT22;10431;50.228;9.112;2023-04-28T12:15:01;19.30;87.30
20546;DHT22;10431;50.228;9.112;2023-04-28T12:17:32;19.30;87.20
20546;DHT22;10431;50.228;9.112;2023-04-28T12:20:01;19.30;87.20
20546;DHT22;10431;50.228;9.112;2023-04-28T12:22:28;19.20;86.70
20546;DHT22;10431;50.228;9.112;2023-04-28T12:25:08;19.20;88.30
20546;DHT22;10431;50.228;9.112;2023-04-28T12:27:39;19.20;88.30
20546;DHT22;10431;50.228;9.112;2023-04-28T12:30:23;19.20;88.30
20546;DHT22;10431;50.228;9.112;2023-04-28T12:32:50;19.20;88.60
20546;DHT22;10431;50.228;9.112;2023-04-28T12:35:24;19.20;88.40
20546;DHT22;10431;50.228;9.112;2023-04-28T12:37:51;19.20;88.50
20546;DHT22;10431;50.228;9.112;2023-04-28T12:40:18;19.20;88.50
20546;DHT22;10431;50.228;9.112;2023-04-28T12:42:44;19.20;88.50
20546;DHT22;10431;50.228;9.112;2023-04-28T12:45:11;19.20;88.50
20546;DHT22;10431;50.228;9.112;2023-04-28T12:47:37;19.20;88.30
20546;DHT22;10431;50.228;9.112;2023-04-28T12:50:05;19.20;88.60
20546;DHT22;10431;50.228;9.112;2023-04-28T12:52:32;19.20;88.50
20546;DHT22;10431;50.228;9.112;2023-04-28T12:54:59;19.20;88.50
20546;DHT22;10431;50.228;9.112;2023-04-28T12:57:25;19.20;88.50
20546;DHT22;10431;50.228;9.112;2023-04-28T12:59:52;19.20;88.30
20546;DHT22;10431;50.228;9.112;2023-04-28T13:02:19;19.20;88.20
20546;DHT22;10431;50.228;9.112;2023-04-28T13:04:45;19.20;88.10
20546;DHT22;10431;50.228;9.112;2023-04-28T13:07:15;19.20;88.20
20546;DHT22;10431;50.228;9.112;2023-04-28T13:09:42;19.20;88.20
20546;DHT22;10431;50.228;9.112;2023-04-28T13:12:09;19.20;88.20
20546;DHT22;10431;50.228;9.112;2023-04-28T13:14:36;19.20;88.10
20546;DHT22;10431;50.228;9.112;2023-04-28T13:17:02;19.20;88.10
20546;DHT22;10431;50.228;9.112;2023-04-28T13:19:30;19.20;88.10
20546;DHT22;10431;50.228;9.112;2023-04-28T13:21:57;19.20;88.00
20546;DHT22;10431;50.228;9.112;2023-04-28T13:24:23;19.20;87.90
20546;DHT22;10431;50.228;9.112;2023-04-28T13:26:51;19.20;87.90
20546;DHT22;10431;50.228;9.112;2023-04-28T13:29:17;19.20;87.90
20546;DHT22;10431;50.228;9.112;2023-04-28T13:31:44;19.20;88.00
20546;DHT22;10431;50.228;9.112;2023-04-28T13:34:10;19.30;88.00
20546;DHT22;10431;50.228;9.112;2023-04-28T13:36:41;19.20;87.90
20546;DHT22;10431;50.228;9.112;2023-04-28T13:39:07;19.30;87.90
20546;DHT22;10431;50.228;9.112;2023-04-28T13:41:39;19.30;87.80
20546;DHT22;10431;50.228;9.112;2023-04-28T13:44:05;19.30;87.90
20546;DHT22;10431;50.228;9.112;2023-04-28T13:46:31;19.20;87.90
20546;DHT22;10431;50.228;9.112;2023-04-28T13:48:57;19.20;88.70
20546;DHT22;10431;50.228;9.112;2023-04-28T13:51:24;19.20;87.90
20546;DHT22;10431;50.228;9.112;2023-04-28T13:53:50;19.10;88.80
20546;DHT22;10431;50.228;9.112;2023-04-28T13:56:16;19.20;89.20
20546;DHT22;10431;50.228;9.112;2023-04-28T13:58:42;19.20;89.50
20546;DHT22;10431;50.228;9.112;2023-04-28T14:01:09;19.20;89.20
20546;DHT22;10431;50.228;9.112;2023-04-28T14:03:35;19.10;89.10
20546;DHT22;10431;50.228;9.112;2023-04-28T14:06:02;19.10;88.90
20546;DHT22;10431;50.228;9.112;2023-04-28T14:08:29;19.10;89.70
20546;DHT22;10431;50.228;9.112;2023-04-28T14:10:55;19.20;88.80
20546;DHT22;10431;50.228;9.112;2023-04-28T14:13:22;19.10;88.80
20546;DHT22;10431;50.228;9.112;2023-04-28T14:15:53;19.10;88.60
20546;DHT22;10431;50.228;9.112;2023-04-28T14:18:19;19.10;88.60
20546;DHT22;10431;50.228;9.112;2023-04-28T14:20:46;19.10;88.40
20546;DHT22;10431;50.228;9.112;2023-04-28T14:23:12;19.10;88.30
20546;DHT22;10431;50.228;9.112;2023-04-28T14:25:39;19.10;88.20
20546;DHT22;10431;50.228;9.112;2023-04-28T14:28:06;19.10;88.20
20546;DHT22;10431;50.228;9.112;2023-04-28T14:30:32;19.10;88.10
20546;DHT22;10431;50.228;9.112;2023-04-28T14:32:58;19.10;88.10
20546;DHT22;10431;50.228;9.112;2023-04-28T14:35:24;19.10;88.10
20546;DHT22;10431;50.228;9.112;2023-04-28T14:37:52;19.00;87.90
20546;DHT22;10431;50.228;9.112;2023-04-28T14:40:19;19.00;87.90
20546;DHT22;10431;50.228;9.112;2023-04-28T14:42:45;19.00;87.90
20546;DHT22;10431;50.228;9.112;2023-04-28T14:45:12;19.00;87.80
20546;DHT22;10431;50.228;9.112;2023-04-28T14:47:38;19.00;87.70
20546;DHT22;10431;50.228;9.112;2023-04-28T14:50:07;19.00;87.70
20546;DHT22;10431;50.228;9.112;2023-04-28T14:52:33;19.00;87.70
20546;DHT22;10431;50.228;9.112;2023-04-28T14:55:00;19.00;87.60
20546;DHT22;10431;50.228;9.112;2023-04-28T14:57:28;19.00;87.60
20546;DHT22;10431;50.228;9.112;2023-04-28T14:59:54;19.00;87.50
20546;DHT22;10431;50.228;9.112;2023-04-28T15:02:21;19.00;87.50
20546;DHT22;10431;50.228;9.112;2023-04-28T15:04:51;19.00;87.50
20546;DHT22;10431;50.228;9.112;2023-04-28T15:07:18;19.00;87.50
20546;DHT22;10431;50.228;9.112;2023-04-28T15:09:46;19.00;87.40
20546;DHT22;10431;50.228;9.112;2023-04-28T15:12:12;19.00;87.40
20546;DHT22;10431;50.228;9.112;2023-04-28T15:14:38;19.00;87.40
20546;DHT22;10431;50.228;9.112;2023-04-28T15:17:04;19.00;87.30
20546;DHT22;10431;50.228;9.112;2023-04-28T15:19:31;19.00;87.20
20546;DHT22;10431;50.228;9.112;2023-04-28T15:21:57;19.00;87.20
20546;DHT22;10431;50.228;9.112;2023-04-28T15:24:23;19.00;87.20
20546;DHT22;10431;50.228;9.112;2023-04-28T15:26:50;19.00;87.10
20546;DHT22;10431;50.228;9.112;2023-04-28T15:29:16;19.00;87.10
20546;DHT22;10431;50.228;9.112;2023-04-28T15:31:43;19.00;87.10
20546;DHT22;10431;50.228;9.112;2023-04-28T15:34:10;19.00;87.00
20546;DHT22;10431;50.228;9.112;2023-04-28T15:36:37;19.00;87.00
20546;DHT22;10431;50.228;9.112;2023-04-28T15:39:07;19.00;87.00
20546;DHT22;10431;50.228;9.112;2023-04-28T15:41:34;19.00;87.00
20546;DHT22;10431;50.228;9.112;2023-04-28T15:44:00;19.00;87.00
20546;DHT22;10431;50.228;9.112;2023-04-28T15:46:27;19.00;86.90
20546;DHT22;10431;50.228;9.112;2023-04-28T15:48:54;19.00;87.00
20546;DHT22;10431;50.228;9.112;2023-04-28T15:51:21;19.00;86.90
20546;DHT22;10431;50.228;9.112;2023-04-28T15:53:48;19.00;87.50
20546;DHT22;10431;50.228;9.112;2023-04-28T15:56:18;19.00;88.20
20546;DHT22;10431;50.228;9.112;2023-04-28T15:58:45;19.00;88.40
20546;DHT22;10431;50.228;9.112;2023-04-28T16:01:12;19.00;88.50
20546;DHT22;10431;50.228;9.112;2023-04-28T16:03:39;19.00;88.60